Time;durP1;ratioP1;P1;durP2;ratioP2;P2;SDS_P1;SDS_P2;PMS_P1;PMS_P2;Temp;Humidity;BMP_temperature;BMP_pressure;BME280_temperature;BME280_humidity;BME280_pressure;Samples;Min_cycle;Max_cycle;Signal;HPM_P1;HPM_P2
2023/09/07 00:10:22;;;;;;;0.20;0.20;;;;;;;16.95;60.12;100413.97;5310977;27;20099;-96
2023/09/07 00:12:52;;;;;;;0.47;0.47;;;;;;;16.94;60.12;100415.75;5250267;27;20041;-95
2023/09/07 00:15:26;;;;;;;0.10;0.10;;;;;;;17.12;60.12;100414.88;5271705;27;20186;-96
2023/09/07 00:18:21;;;;;;;0.25;0.17;;;;;;;17.01;60.12;100413.66;5286788;26;20059;-95
2023/09/07 00:20:51;;;;;;;0.00;0.00;;;;;;;17.14;60.12;100413.00;5350947;26;20017;-95
2023/09/07 00:43:55;;;;;;;0.60;0.45;;;;;;;16.87;60.11;100416.97;5293326;26;20082;-96
2023/09/07 00:46:23;;;;;;;0.20;0.20;;;;;;;16.83;60.11;100415.41;5333985;26;20059;-96
2023/09/07 00:48:51;;;;;;;0.35;0.28;;;;;;;16.84;60.10;100419.75;5352639;26;20040;-96
2023/09/07 00:51:26;;;;;;;0.00;0.00;;;;;;;16.80;60.10;100413.78;5319273;26;20031;-96
2023/09/07 00:54:26;;;;;;;0.00;0.00;;;;;;;16.94;60.12;100414.91;5380605;26;20020;-96
2023/09/07 01:33:06;;;;;;;0.65;0.30;;;;;;;16.81;60.11;100412.88;5283819;26;20042;-96
2023/09/07 01:35:32;;;;;;;0.00;0.00;;;;;;;16.76;60.10;100411.34;5268888;27;20072;-95
2023/09/07 01:45:32;;;;;;;;;;;;;;;;;;;;;
2023/09/07 01:48:46;;;;;;;0.28;0.28;;;;;;;16.47;60.09;100421.41;5255188;27;36375;-96
2023/09/07 01:51:27;;;;;;;;;;;;;;;;;;;;;
2023/09/07 01:53:55;;;;;;;0.93;0.70;;;;;;;16.49;60.09;100423.97;5312814;27;36410;-95
2023/09/07 02:06:14;;;;;;;0.37;0.10;;;;;;;16.25;60.08;100426.78;5245199;27;20221;-96
2023/09/07 02:08:40;;;;;;;0.98;0.62;;;;;;;16.19;60.08;100426.19;5323260;26;20055;-95
2023/09/07 02:11:11;;;;;;;0.10;0.10;;;;;;;16.32;60.09;100423.84;5326172;26;20067;-96
2023/09/07 02:13:38;;;;;;;0.00;0.00;;;;;;;16.19;60.07;100432.31;5311971;26;20107;-96
2023/09/07 02:16:05;;;;;;;0.35;0.35;;;;;;;16.04;60.06;100421.59;5330034;26;20074;-96
2023/09/07 02:18:32;;;;;;;0.30;0.30;;;;;;;16.23;60.08;100431.25;5310689;26;20056;-95
2023/09/07 02:21:04;;;;;;;7.12;1.05;;;;;;;16.27;60.08;100429.31;5311441;26;20067;-96
2023/09/07 02:23:36;;;;;;;0.00;0.00;;;;;;;16.08;60.08;100431.91;5311175;26;20112;-96
2023/09/07 02:26:02;;;;;;;0.10;0.10;;;;;;;16.09;60.07;100430.13;5293915;26;20064;-96
2023/09/07 02:28:28;;;;;;;0.10;0.10;;;;;;;16.06;60.06;100433.75;5311714;26;20091;-96
2023/09/07 02:30:53;;;;;;;0.00;0.00;;;;;;;16.00;60.07;100426.16;5312048;26;20063;-95
2023/09/07 02:33:20;;;;;;;0.00;0.00;;;;;;;15.96;60.06;100429.84;5311655;26;20082;-96
2023/09/07 02:35:47;;;;;;;0.52;0.52;;;;;;;15.95;60.06;100434.22;5312888;26;20087;-96
2023/09/07 02:38:17;;;;;;;0.08;0.08;;;;;;;16.07;60.06;100432.81;5314113;26;20060;-96
2023/09/07 02:40:55;;;;;;;0.20;0.20;;;;;;;15.87;60.05;100430.25;5319160;26;20028;-96
2023/09/07 02:43:31;;;;;;;0.22;0.22;;;;;;;15.96;60.06;100433.31;5383652;26;20067;-96
2023/09/07 02:46:08;;;;;;;0.00;0.00;;;;;;;15.98;60.06;100443.75;5349416;26;20079;-96
2023/09/07 02:48:46;;;;;;;0.25;0.25;;;;;;;15.87;60.06;100436.34;5316442;26;20048;-96
2023/09/07 02:52:04;;;;;;;0.32;0.32;;;;;;;15.91;60.05;100432.66;5318410;26;20058;-96
2023/09/07 02:54:56;;;;;;;0.10;0.10;;;;;;;15.86;60.06;100434.63;5359755;26;20020;-96
2023/09/07 02:57:26;;;;;;;0.22;0.22;;;;;;;15.93;60.05;100435.22;5336135;26;20083;-96
2023/09/07 02:59:53;;;;;;;0.00;0.00;;;;;;;15.80;60.05;100436.66;5330284;26;20044;-96
2023/09/07 03:02:21;;;;;;;0.22;0.22;;;;;;;15.72;60.05;100441.38;5312252;26;20745;-95
2023/09/07 03:04:46;;;;;;;0.10;0.10;;;;;;;15.62;60.03;100441.78;5313194;26;20067;-96
2023/09/07 03:07:12;;;;;;;0.05;0.05;;;;;;;15.70;60.04;100443.22;5329312;26;20060;-96
2023/09/07 03:09:38;;;;;;;0.00;0.00;;;;;;;15.80;60.05;100434.88;5329999;26;20056;-96
2023/09/07 03:12:04;;;;;;;0.00;0.00;;;;;;;15.81;60.05;100435.72;5311107;26;20405;-96
2023/09/07 03:15:13;;;;;;;0.00;0.00;;;;;;;15.77;60.05;100439.41;5314535;26;20045;-96
2023/09/07 03:17:59;;;;;;;0.85;0.32;;;;;;;15.80;60.05;100439.28;5313465;26;20072;-96
2023/09/07 03:20:40;;;;;;;0.10;0.10;;;;;;;15.64;60.05;100439.09;5340854;26;20070;-96
2023/09/07 03:23:20;;;;;;;0.08;0.08;;;;;;;15.68;60.04;100442.44;5377553;26;20016;-96
2023/09/07 03:26:30;;;;;;;;;;;;;;;;;;;;;
2023/09/07 03:29:25;;;;;;;0.03;0.03;;;;;;;15.74;60.05;100437.78;5357912;26;35832;-96
2023/09/07 03:35:58;;;;;;;0.30;0.30;;;;;;;15.65;60.04;100435.53;5297530;26;20057;-96
2023/09/07 03:39:24;;;;;;;1.30;0.62;;;;;;;15.61;60.04;100439.19;5242560;27;20034;-96
2023/09/07 03:42:33;;;;;;;0.10;0.10;;;;;;;15.50;60.04;100452.72;5214850;27;20023;-96
2023/09/07 03:45:39;;;;;;;3.97;0.80;;;;;;;15.50;60.04;100442.22;5305946;27;20076;-96
2023/09/07 03:49:22;;;;;;;0.20;0.20;;;;;;;15.45;60.04;100438.09;5276770;27;20017;-96
2023/09/07 04:02:53;;;;;;;0.30;0.30;;;;;;;15.15;60.01;100451.53;5278742;27;20709;-95
2023/09/07 04:11:12;;;;;;;0.10;0.10;;;;;;;15.03;60.01;100460.72;5287398;27;20078;-95
2023/09/07 04:13:37;;;;;;;0.20;0.20;;;;;;;15.21;60.02;100443.44;5278121;27;20072;-95
2023/09/07 04:16:03;;;;;;;0.00;0.00;;;;;;;15.18;60.02;100453.19;5285493;27;20418;-95
2023/09/07 04:18:44;;;;;;;0.30;0.30;;;;;;;15.08;60.01;100454.44;5310930;27;20125;-96
2023/09/07 04:21:12;;;;;;;0.30;0.30;;;;;;;15.19;60.01;100458.38;5310237;27;20062;-96
2023/09/07 04:24:29;;;;;;;0.32;0.32;;;;;;;15.10;60.01;100456.09;5293670;27;20056;-96
2023/09/07 04:27:13;;;;;;;1.12;0.47;;;;;;;15.02;60.00;100455.53;5331802;27;20029;-96
2023/09/07 04:30:13;;;;;;;1.00;0.60;;;;;;;15.10;60.01;100458.72;5297458;27;20084;-96
2023/09/07 04:33:13;;;;;;;0.05;0.05;;;;;;;14.96;60.00;100461.88;5264427;27;20060;-96
2023/09/07 04:35:41;;;;;;;0.13;0.13;;;;;;;14.93;60.00;100462.00;5252224;27;20106;-95
2023/09/07 04:38:49;;;;;;;1.65;0.88;;;;;;;15.16;60.01;100457.66;5257291;27;20049;-96
2023/09/07 04:41:37;;;;;;;1.45;1.12;;;;;;;15.08;60.00;100457.91;5286907;27;20411;-96
2023/09/07 04:44:02;;;;;;;0.57;0.57;;;;;;;15.29;60.02;100464.09;5246133;27;20069;-94
2023/09/07 04:46:30;;;;;;;0.70;0.65;;;;;;;15.64;60.05;100462.72;5228544;27;20128;-96
2023/09/07 04:49:08;;;;;;;0.10;0.10;;;;;;;15.88;60.06;100456.44;5286118;27;20114;-96
2023/09/07 04:51:59;;;;;;;1.00;0.52;;;;;;;15.72;60.04;100459.75;5321449;27;20062;-96
2023/09/07 04:54:51;;;;;;;1.45;0.85;;;;;;;15.74;60.05;100456.12;5314372;27;20093;-96
2023/09/07 04:57:38;;;;;;;0.10;0.10;;;;;;;15.70;60.04;100458.97;5320340;27;20033;-96
2023/09/07 05:00:06;;;;;;;0.62;0.45;;;;;;;15.94;60.06;100461.41;5286312;27;20061;-96
2023/09/07 05:02:41;;;;;;;0.62;0.62;;;;;;;15.91;60.05;100453.66;5289778;27;20078;-96
2023/09/07 05:05:08;;;;;;;0.95;0.82;;;;;;;16.04;60.06;100459.22;5289009;27;20082;-96
2023/09/07 05:07:34;;;;;;;2.33;0.37;;;;;;;16.17;60.07;100459.56;5354785;26;20101;-96
2023/09/07 05:09:59;;;;;;;0.20;0.20;;;;;;;16.30;60.07;100465.13;5317301;26;20039;-96
2023/09/07 05:12:25;;;;;;;1.37;1.27;;;;;;;16.47;60.09;100459.97;5313377;26;20063;-96
2023/09/07 05:14:59;;;;;;;0.15;0.15;;;;;;;16.46;60.08;100459.12;5334032;26;20047;-95
2023/09/07 05:17:25;;;;;;;0.10;0.10;;;;;;;16.60;60.09;100463.75;5316614;26;20028;-96
2023/09/07 05:19:54;;;;;;;0.68;0.68;;;;;;;16.79;60.10;100459.38;5314221;26;20075;-96
2023/09/07 05:22:32;;;;;;;0.13;0.13;;;;;;;17.08;60.12;100459.81;5334615;26;20060;-95
2023/09/07 05:24:58;;;;;;;3.72;0.65;;;;;;;16.87;60.10;100467.78;5317809;26;20045;-96
2023/09/07 06:28:17;;;;;;;0.20;0.20;;;;;;;20.85;60.31;100474.19;5345504;26;20189;-92
2023/09/07 06:36:01;;;;;;;0.00;0.00;;;;;;;21.23;60.33;100468.22;5341818;26;20584;-96
2023/09/07 06:38:30;;;;;;;2.35;0.95;;;;;;;21.33;60.35;100472.03;5378557;26;20052;-96
2023/09/07 06:40:58;;;;;;;0.00;0.00;;;;;;;21.40;60.34;100465.38;5316381;26;20060;-95
2023/09/07 06:43:26;;;;;;;0.80;0.70;;;;;;;21.32;60.34;100472.97;5313386;26;20056;-95
2023/09/07 06:45:54;;;;;;;0.13;0.13;;;;;;;21.68;60.36;100467.91;5312532;26;20052;-96
2023/09/07 06:48:19;;;;;;;0.13;0.13;;;;;;;21.77;60.36;100469.09;5330745;26;20052;-94
2023/09/07 06:50:48;;;;;;;0.20;0.20;;;;;;;21.96;60.38;100474.00;5312411;26;20145;-95
2023/09/07 06:53:14;;;;;;;0.08;0.08;;;;;;;22.09;60.37;100468.75;5312357;26;20115;-94
2023/09/07 06:55:45;;;;;;;0.10;0.10;;;;;;;22.22;60.39;100474.87;5311795;26;20043;-95
2023/09/07 07:01:37;;;;;;;0.00;0.00;;;;;;;22.34;60.39;100477.56;5254236;27;20148;-95
2023/09/07 07:04:06;;;;;;;0.03;0.03;;;;;;;22.76;60.41;100472.00;5214131;27;20050;-96
2023/09/07 07:06:37;;;;;;;0.32;0.32;;;;;;;22.72;60.42;100479.34;5294944;26;20700;-94
2023/09/07 07:09:09;;;;;;;1.00;0.95;;;;;;;22.81;60.42;100486.69;5312890;26;20061;-95
2023/09/07 07:11:40;;;;;;;0.00;0.00;;;;;;;22.87;60.42;100480.06;5313313;26;20076;-95
2023/09/07 07:14:16;;;;;;;0.95;0.80;;;;;;;23.10;60.43;100479.28;5314166;26;20052;-95
2023/09/07 07:16:42;;;;;;;0.88;0.85;;;;;;;23.24;60.44;100470.31;5333279;26;20066;-95
2023/09/07 07:19:25;;;;;;;;;;;;;;;;;;;;;
2023/09/07 07:25:40;;;;;;;1.37;0.55;;;;;;;23.57;60.45;100482.94;5259101;27;20017;-96
2023/09/07 07:28:35;;;;;;;0.77;0.73;;;;;;;23.53;60.46;100476.12;5358101;26;20617;-95
2023/09/07 07:31:10;;;;;;;0.45;0.40;;;;;;;23.63;60.46;100477.16;5336784;26;20061;-95
2023/09/07 07:34:12;;;;;;;0.65;0.62;;;;;;;23.82;60.47;100482.78;5338559;26;20028;-96
2023/09/07 07:36:47;;;;;;;1.02;0.65;;;;;;;23.88;60.47;100486.78;5312661;26;20053;-96
2023/09/07 07:39:13;;;;;;;0.10;0.10;;;;;;;24.11;60.48;100482.38;5345764;26;20657;-95
2023/09/07 07:41:38;;;;;;;0.20;0.20;;;;;;;24.14;60.49;100477.69;5307148;27;20075;-96
2023/09/07 07:44:04;;;;;;;0.65;0.43;;;;;;;24.29;60.50;100490.78;5305533;27;20060;-96
2023/09/07 07:46:30;;;;;;;0.65;0.45;;;;;;;24.20;60.50;100481.69;5305523;26;20070;-96
2023/09/07 07:48:57;;;;;;;1.15;1.05;;;;;;;24.33;60.50;100478.94;5306322;27;20062;-96
2023/09/07 07:51:55;;;;;;;0.20;0.20;;;;;;;24.37;60.50;100483.06;5328556;26;20041;-96
2023/09/07 07:54:24;;;;;;;0.20;0.20;;;;;;;24.33;60.50;100482.44;5343428;26;20088;-96
2023/09/07 07:56:50;;;;;;;0.52;0.52;;;;;;;24.28;60.50;100481.97;5332453;26;21020;-95
2023/09/07 07:59:16;;;;;;;1.20;0.50;;;;;;;24.61;60.52;100483.81;5314221;26;20075;-96
2023/09/07 08:01:44;;;;;;;13.07;1.10;;;;;;;24.66;60.51;100484.31;5309184;26;20060;-96
2023/09/07 08:04:11;;;;;;;0.85;0.85;;;;;;;24.60;60.50;100492.75;5309750;26;20070;-96
2023/09/07 08:06:58;;;;;;;0.40;0.40;;;;;;;24.59;60.51;100487.56;5309351;26;20120;-96
2023/09/07 08:09:33;;;;;;;0.50;0.50;;;;;;;24.69;60.52;100489.38;5312723;26;20052;-94
2023/09/07 08:16:38;;;;;;;;;;;;;;;;;;;;;
2023/09/07 08:19:48;;;;;;;0.00;0.00;;;;;;;25.15;60.55;100485.72;5267006;27;20202;-96
2023/09/07 08:22:35;;;;;;;0.13;0.08;;;;;;;25.51;60.56;100476.53;5273367;27;20057;-96
2023/09/07 08:25:30;;;;;;;0.28;0.28;;;;;;;25.41;60.56;100475.59;5228409;27;20044;-94
2023/09/07 08:27:58;;;;;;;0.10;0.10;;;;;;;25.58;60.56;100479.56;5326782;26;20068;-96
2023/09/07 08:33:54;;;;;;;0.40;0.25;;;;;;;25.79;60.58;100466.25;5312058;26;20413;-95
2023/09/07 08:36:23;;;;;;;5.12;0.98;;;;;;;25.70;60.57;100466.06;5311901;26;20056;-96
2023/09/07 08:46:40;;;;;;;0.55;0.20;;;;;;;26.27;60.60;100464.78;5275676;27;20113;-95
2023/09/07 08:49:14;;;;;;;0.75;0.40;;;;;;;26.39;60.61;100465.56;5276947;27;20120;-93
2023/09/07 08:51:49;;;;;;;0.60;0.60;;;;;;;26.66;60.62;100461.44;5258277;27;20120;-93
2023/09/07 08:58:24;;;;;;;;;;;;;;;;;;;;;
2023/09/07 09:04:22;;;;;;;0.65;0.50;;;;;;;26.88;60.64;100451.41;5225861;27;20076;-93
2023/09/07 09:11:17;;;;;;;;;;;;;;;;;;;;;
2023/09/07 09:14:28;;;;;;;;;;;;;;;;;;;;;
2023/09/07 09:24:14;;;;;;;0.37;0.37;;;;;;;27.89;60.68;100436.87;5336513;26;20063;-93
2023/09/07 09:26:54;;;;;;;0.47;0.47;;;;;;;28.12;60.70;100434.72;5330483;26;20025;-93
2023/09/07 09:29:58;;;;;;;;;;;;;;;28.09;60.70;100432.34;5310191;26;20064;-94
2023/09/07 09:39:05;;;;;;;0.30;0.30;;;;;;;28.32;60.71;100430.19;5311146;26;20486;-94
2023/09/07 09:41:39;;;;;;;0.10;0.10;;;;;;;28.43;60.71;100430.84;5292900;27;20147;-96
2023/09/07 11:07:09;;;;;;;0.62;0.50;;;;;;;30.34;60.81;100381.34;5328881;26;20072;-96
2023/09/07 11:09:39;;;;;;;0.20;0.20;;;;;;;30.27;60.82;100373.06;5330580;26;20450;-96
2023/09/07 11:12:05;;;;;;;0.30;0.30;;;;;;;30.27;60.82;100375.75;5338549;26;20020;-96
2023/09/07 11:17:40;;;;;;;1.37;1.15;;;;;;;30.50;60.82;100367.94;5307413;26;20085;-94
2023/09/07 11:20:39;;;;;;;7.65;1.62;;;;;;;30.74;60.84;100354.63;5349921;26;20675;-96
2023/09/07 11:23:05;;;;;;;0.20;0.20;;;;;;;30.86;60.85;100357.84;5330850;26;20056;-95
2023/09/07 11:29:43;;;;;;;0.55;0.55;;;;;;;31.11;60.86;100359.56;5321286;26;20114;-94
2023/09/07 11:35:41;;;;;;;0.90;0.62;;;;;;;30.95;60.85;100353.31;5251008;27;20092;-96
2023/09/07 11:38:10;;;;;;;0.10;0.10;;;;;;;30.79;60.84;100355.00;5278923;27;20059;-96
2023/09/07 11:40:35;;;;;;;0.00;0.00;;;;;;;30.70;60.84;100358.66;5282654;27;20065;-96
2023/09/07 11:43:19;;;;;;;0.10;0.10;;;;;;;30.73;60.84;100344.88;5282107;27;20091;-96
2023/09/07 11:45:45;;;;;;;1.60;0.73;;;;;;;30.64;60.83;100347.72;5286816;27;20107;-96
2023/09/07 11:48:10;;;;;;;0.47;0.45;;;;;;;30.88;60.85;100341.56;5288296;27;20076;-95
2023/09/07 11:50:36;;;;;;;0.43;0.40;;;;;;;30.82;60.84;100333.16;5284528;27;20085;-95
2023/09/07 11:53:02;;;;;;;3.22;1.17;;;;;;;30.90;60.84;100326.09;5302623;27;20079;-94
2023/09/07 11:55:27;;;;;;;0.60;0.40;;;;;;;30.99;60.86;100338.53;5283752;27;20092;-93
2023/09/07 11:57:53;;;;;;;1.23;0.90;;;;;;;30.88;60.84;100333.50;5302333;27;20408;-94
2023/09/07 12:00:19;;;;;;;2.12;0.77;;;;;;;31.18;60.87;100332.03;5310271;26;20111;-89
2023/09/07 12:02:44;;;;;;;0.20;0.20;;;;;;;31.25;60.87;100346.50;5309501;26;20340;-91
2023/09/07 12:05:10;;;;;;;0.10;0.10;;;;;;;31.13;60.86;100332.50;5328560;26;20068;-93
2023/09/07 12:07:36;;;;;;;0.47;0.47;;;;;;;31.19;60.87;100331.84;5328114;26;20098;-94
2023/09/07 12:10:01;;;;;;;0.28;0.28;;;;;;;31.15;60.87;100336.72;5311018;26;20424;-95
2023/09/07 12:12:29;;;;;;;0.20;0.20;;;;;;;31.12;60.86;100328.13;5329207;26;20082;-94
2023/09/07 12:14:56;;;;;;;2.35;0.57;;;;;;;30.94;60.85;100324.75;5347059;26;20066;-93
2023/09/07 12:17:22;;;;;;;0.22;0.10;;;;;;;31.13;60.86;100332.50;5328824;26;20119;-93
2023/09/07 12:19:49;;;;;;;0.00;0.00;;;;;;;30.79;60.85;100328.13;5310293;26;20427;-94
2023/09/07 12:22:14;;;;;;;0.88;0.75;;;;;;;30.89;60.85;100321.72;5328804;26;20068;-92
2023/09/07 12:24:49;;;;;;;0.65;0.52;;;;;;;31.02;60.86;100327.47;5347039;26;20088;-93
2023/09/07 12:27:14;;;;;;;1.75;1.40;;;;;;;30.96;60.85;100320.88;5310960;26;20431;-95
2023/09/07 12:36:31;;;;;;;1.42;0.35;;;;;;;31.18;60.87;100313.19;5222071;27;20419;-96
2023/09/07 12:39:05;;;;;;;1.67;0.20;;;;;;;31.16;60.87;100321.41;5268920;27;20056;-96
2023/09/07 12:41:30;;;;;;;0.35;0.35;;;;;;;31.32;60.88;100317.91;5274437;27;20029;-96
2023/09/07 12:44:13;;;;;;;0.08;0.08;;;;;;;31.45;60.87;100316.38;5272646;27;20116;-96
2023/09/07 12:46:40;;;;;;;0.10;0.10;;;;;;;31.51;60.88;100312.19;5289863;27;20174;-92
2023/09/07 12:49:06;;;;;;;1.37;0.73;;;;;;;31.65;60.89;100307.94;5283713;27;20076;-93
2023/09/07 12:54:11;;;;;;;0.30;0.30;;;;;;;31.60;60.88;100313.84;5308251;26;20209;-96
2023/09/07 12:59:40;;;;;;;0.75;0.43;;;;;;;31.53;60.88;100301.25;5345328;26;20370;-96
2023/09/07 13:04:59;;;;;;;0.10;0.10;;;;;;;31.40;60.88;100291.00;5337197;27;20039;-96
2023/09/07 13:07:30;;;;;;;1.75;0.95;;;;;;;31.39;60.88;100292.00;5313999;27;20063;-96
2023/09/07 13:09:56;;;;;;;0.25;0.25;;;;;;;31.61;60.88;100294.00;5308302;27;20059;-96
2023/09/07 13:12:21;;;;;;;0.25;0.20;;;;;;;31.44;60.88;100292.34;5309456;27;20115;-95
2023/09/07 13:14:47;;;;;;;0.73;0.73;;;;;;;31.40;60.88;100288.31;5308060;27;20709;-96
2023/09/07 13:22:26;;;;;;;1.08;0.98;;;;;;;31.42;60.88;100291.66;5315629;26;20064;-96
2023/09/07 13:25:12;;;;;;;0.90;0.85;;;;;;;31.51;60.88;100295.19;5322527;26;20074;-96
2023/09/07 13:27:56;;;;;;;0.00;0.00;;;;;;;31.58;60.88;100288.13;5354326;26;20047;-96
2023/09/07 13:32:02;;;;;;;;;;;;;;;;;;;;;
2023/09/07 13:34:49;;;;;;;0.52;0.52;;;;;;;31.55;60.89;100286.59;5257431;26;20071;-96
2023/09/07 13:37:24;;;;;;;1.27;0.82;;;;;;;31.54;60.88;100284.09;5325858;26;20068;-92
2023/09/07 13:39:53;;;;;;;0.22;0.22;;;;;;;31.41;60.88;100281.91;5290605;26;20067;-91
2023/09/07 13:42:28;;;;;;;0.45;0.43;;;;;;;31.30;60.88;100280.44;5287939;26;20071;-94
2023/09/07 13:44:56;;;;;;;0.70;0.70;;;;;;;31.32;60.88;100275.72;5286689;26;20418;-95
2023/09/07 13:50:08;;;;;;;0.77;0.32;;;;;;;31.39;60.88;100275.88;5319720;26;20052;-93
2023/09/07 13:52:34;;;;;;;1.50;0.90;;;;;;;31.52;60.88;100272.66;5310395;26;20043;-94
2023/09/07 13:54:59;;;;;;;0.00;0.00;;;;;;;31.51;60.88;100268.28;5309878;26;20364;-95
2023/09/07 13:57:25;;;;;;;0.45;0.45;;;;;;;31.54;60.88;100265.25;5309606;26;20076;-92
2023/09/07 13:59:50;;;;;;;0.57;0.57;;;;;;;31.56;60.89;100268.63;5346776;26;20076;-92
2023/09/07 14:02:16;;;;;;;0.10;0.10;;;;;;;31.61;60.88;100266.25;5309650;26;20452;-91
2023/09/07 14:04:41;;;;;;;1.15;1.08;;;;;;;31.61;60.89;100268.94;5308959;26;20194;-91
2023/09/07 14:07:07;;;;;;;1.55;1.10;;;;;;;31.61;60.89;100264.37;5366269;26;20442;-91
2023/09/07 14:09:33;;;;;;;0.68;0.47;;;;;;;31.56;60.89;100261.37;5328208;26;20068;-90
2023/09/07 14:11:59;;;;;;;1.30;0.45;;;;;;;31.65;60.89;100270.25;5346374;26;20052;-91
2023/09/07 14:14:24;;;;;;;0.20;0.20;;;;;;;31.45;60.88;100265.25;5328808;26;20060;-92
2023/09/07 14:17:30;;;;;;;1.17;1.08;;;;;;;31.31;60.88;100260.59;5310655;26;20648;-93
2023/09/07 14:19:55;;;;;;;1.85;0.50;;;;;;;31.46;60.88;100258.84;5336953;26;20420;-91
2023/09/07 14:22:26;;;;;;;0.37;0.37;;;;;;;31.44;60.88;100255.50;5328372;26;20118;-92
2023/09/07 14:28:27;;;;;;;0.68;0.68;;;;;;;31.24;60.87;100254.22;5366855;26;20074;-96
2023/09/07 14:30:54;;;;;;;0.37;0.37;;;;;;;31.22;60.87;100255.38;5310775;26;20056;-96
2023/09/07 14:33:22;;;;;;;0.10;0.10;;;;;;;31.13;60.86;100257.22;5348222;26;20401;-95
2023/09/07 14:36:20;;;;;;;0.30;0.30;;;;;;;31.01;60.86;100247.81;5311669;26;20056;-96
2023/09/07 14:39:32;;;;;;;0.55;0.55;;;;;;;31.00;60.87;100254.22;5347933;26;20065;-95
2023/09/07 14:42:53;;;;;;;;;;;;;;;;;;;;;
2023/09/07 14:55:56;;;;;;;;;;;;;;;;;;;;;
2023/09/07 15:02:42;;;;;;;1.00;0.57;;;;;;;30.69;60.84;100237.88;5148779;27;20139;-95
2023/09/07 15:32:53;;;;;;;0.40;0.40;;;;;;;30.43;60.82;100229.94;5146989;27;20421;-93
2023/09/07 16:09:47;;;;;;;0.20;0.20;;;;;;;29.50;60.79;100258.56;5275033;27;20070;-91
2023/09/07 16:31:11;;;;;;;1.05;0.82;;;;;;;28.79;60.75;100259.47;5062467;28;20426;-96
2023/09/07 16:37:26;;;;;;;2.08;0.50;;;;;;;28.88;60.75;100261.28;5076375;28;20149;-95
2023/09/07 16:40:26;;;;;;;;;;;;;;;;;;;;;
2023/09/07 16:43:29;;;;;;;;;;;;;;;;;;;;;
2023/09/07 16:46:17;;;;;;;1.45;0.50;;;;;;;28.27;60.72;100267.31;5343391;26;35462;-95
2023/09/07 16:52:31;;;;;;;0.32;0.25;;;;;;;28.09;60.72;100269.91;5331683;26;20039;-96
2023/09/07 16:58:45;;;;;;;0.20;0.20;;;;;;;27.93;60.71;100269.72;5300173;27;20110;-96
2023/09/07 17:11:39;;;;;;;;;;;;;;;;;;;;;
2023/09/07 19:23:50;;;;;;;;;;;;;;;;;;;;;
2023/09/07 19:27:11;;;;;;;1.25;0.37;;;;;;;20.51;60.32;100396.09;5251911;27;35622;-92
2023/09/07 19:30:09;;;;;;;;;;;;;;;;;;;;;
2023/09/07 19:33:07;;;;;;;0.25;0.25;;;;;;;20.67;60.33;100383.59;5232971;27;35037;-94
2023/09/07 19:36:00;;;;;;;0.85;0.82;;;;;;;20.21;60.30;100394.38;5215883;27;20065;-93
2023/09/07 19:38:40;;;;;;;;;;;;;;;;;;;;;
2023/09/07 19:41:10;;;;;;;0.25;0.25;;;;;;;20.13;60.30;100398.44;5199994;27;35798;-93
2023/09/07 19:44:07;;;;;;;0.20;0.20;;;;;;;20.13;60.30;100385.22;5180831;27;20073;-92
2023/09/07 19:46:36;;;;;;;0.28;0.17;;;;;;;20.24;60.31;100393.34;5210400;27;20470;-94
2023/09/07 19:49:06;;;;;;;0.25;0.25;;;;;;;20.06;60.29;100389.16;5180933;27;20663;-94
2023/09/07 19:51:38;;;;;;;0.13;0.13;;;;;;;19.82;60.28;100391.50;5198254;27;20080;-95
2023/09/07 20:05:59;;;;;;;;;;;;;;;;;;;;;
2023/09/07 20:15:49;;;;;;;;;;;;;;;;;;;;;
2023/09/07 20:25:27;;;;;;;;;;;;;;;;;;;;;
2023/09/07 20:28:36;;;;;;;2.15;1.08;;;;;;;19.22;60.25;100399.44;5266353;27;35736;-93
2023/09/07 20:39:55;;;;;;;;;;;;;;;;;;;;;
2023/09/07 20:43:22;;;;;;;0.32;0.25;;;;;;;19.18;60.25;100398.75;5315687;26;36352;-94
2023/09/07 20:46:20;;;;;;;;;;;;;;;;;;;;;
2023/09/07 20:53:26;;;;;;;0.50;0.50;;;;;;;19.13;60.25;100399.94;5307402;26;20067;-93
2023/09/07 20:56:38;;;;;;;0.43;0.35;;;;;;;19.11;60.24;100396.53;5238409;26;20067;-94
2023/09/07 20:59:26;;;;;;;0.37;0.37;;;;;;;19.10;60.24;100397.47;5271272;26;20067;-94
2023/09/07 21:14:56;;;;;;;0.17;0.17;;;;;;;19.07;60.24;100387.09;5257416;27;20289;-95
2023/09/07 21:17:48;;;;;;;0.30;0.30;;;;;;;19.06;60.23;100388.88;5222538;27;20060;-95
2023/09/07 21:20:40;;;;;;;0.13;0.13;;;;;;;19.00;60.24;100392.72;5226205;27;20124;-94
2023/09/07 21:23:11;;;;;;;0.55;0.52;;;;;;;18.97;60.23;100394.69;5282312;26;20052;-94
2023/09/07 21:26:05;;;;;;;0.00;0.00;;;;;;;18.81;60.22;100392.06;5290196;26;20051;-95
2023/09/07 21:28:33;;;;;;;0.95;0.95;;;;;;;18.89;60.23;100384.56;5305766;27;20049;-93
2023/09/07 21:31:10;;;;;;;0.15;0.15;;;;;;;18.85;60.23;100382.19;5284704;27;20061;-95
2023/09/07 21:56:52;;;;;;;0.30;0.15;;;;;;;18.70;60.22;100379.47;5305477;26;20116;-92
2023/09/07 22:03:58;;;;;;;;;;;;;;;;;;;;;
2023/09/07 22:06:34;;;;;;;;;;;;;;;;;;;;;
2023/09/07 22:09:31;;;;;;;1.77;1.00;;;;;;;18.48;60.21;100385.97;5287196;27;36716;-94
2023/09/07 22:12:02;;;;;;;0.00;0.00;;;;;;;18.44;60.20;100384.41;5290932;27;20045;-94
2023/09/07 22:14:30;;;;;;;0.57;0.57;;;;;;;18.37;60.21;100384.75;5266969;27;20437;-95
2023/09/07 22:16:55;;;;;;;1.23;0.60;;;;;;;18.51;60.21;100383.19;5284280;27;20127;-94
2023/09/07 22:19:21;;;;;;;0.75;0.65;;;;;;;18.50;60.21;100386.75;5266440;27;20095;-93
2023/09/07 22:21:46;;;;;;;0.25;0.25;;;;;;;18.26;60.20;100383.66;5266417;27;20088;-93
2023/09/07 22:24:12;;;;;;;2.10;0.98;;;;;;;18.22;60.18;100388.25;5266583;27;20073;-91
2023/09/07 22:26:40;;;;;;;0.00;0.00;;;;;;;18.19;60.19;100391.00;5263330;27;20064;-94
2023/09/07 22:29:05;;;;;;;0.55;0.55;;;;;;;18.24;60.19;100383.75;5298504;27;20075;-93
2023/09/07 22:31:31;;;;;;;1.00;0.37;;;;;;;18.15;60.18;100383.34;5298767;27;20087;-93
2023/09/07 22:33:56;;;;;;;0.50;0.50;;;;;;;18.20;60.19;100389.22;5298906;27;20311;-94
2023/09/07 22:36:21;;;;;;;0.77;0.68;;;;;;;18.25;60.20;100379.31;5298736;27;20110;-93
2023/09/07 22:38:47;;;;;;;0.65;0.65;;;;;;;18.24;60.19;100380.25;5298866;27;20056;-93
2023/09/07 22:41:13;;;;;;;0.20;0.17;;;;;;;18.23;60.19;100384.66;5299220;27;20414;-94
2023/09/07 22:43:41;;;;;;;0.55;0.55;;;;;;;18.05;60.18;100380.38;5280869;27;20169;-94
2023/09/07 22:46:08;;;;;;;0.10;0.10;;;;;;;18.19;60.19;100377.84;5281509;27;20130;-94
2023/09/07 22:48:33;;;;;;;2.30;1.83;;;;;;;17.97;60.18;100378.12;5262803;27;20052;-93
2023/09/07 22:50:59;;;;;;;0.37;0.35;;;;;;;18.10;60.18;100384.47;5298872;27;20063;-93
2023/09/07 22:53:24;;;;;;;0.88;0.43;;;;;;;18.06;60.17;100377.66;5299157;27;20098;-94
2023/09/07 22:55:50;;;;;;;0.10;0.10;;;;;;;18.01;60.18;100384.09;5298890;27;20078;-94
2023/09/07 22:58:17;;;;;;;0.15;0.15;;;;;;;18.01;60.18;100386.75;5300046;27;20076;-95
2023/09/07 23:00:43;;;;;;;0.10;0.10;;;;;;;18.04;60.18;100382.16;5299941;27;20064;-94
2023/09/07 23:03:09;;;;;;;0.40;0.40;;;;;;;17.98;60.17;100386.88;5281452;27;20065;-94
2023/09/07 23:05:35;;;;;;;0.03;0.03;;;;;;;17.86;60.17;100382.25;5300104;27;20106;-93
2023/09/07 23:08:00;;;;;;;1.10;0.30;;;;;;;17.94;60.18;100382.69;5299840;27;20060;-93
2023/09/07 23:10:26;;;;;;;1.17;0.65;;;;;;;17.90;60.17;100384.66;5281685;27;20167;-95
2023/09/07 23:12:52;;;;;;;0.20;0.17;;;;;;;17.83;60.16;100390.31;5299841;27;20076;-94
2023/09/07 23:15:20;;;;;;;0.35;0.35;;;;;;;18.00;60.18;100380.63;5300092;27;20074;-94
2023/09/07 23:17:47;;;;;;;0.62;0.62;;;;;;;18.08;60.18;100382.84;5317594;27;20123;-93
2023/09/07 23:20:13;;;;;;;1.08;0.82;;;;;;;17.86;60.17;100390.16;5299586;27;20466;-94
2023/09/07 23:22:39;;;;;;;3.10;1.33;;;;;;;17.95;60.18;100393.16;5299526;27;20069;-94
2023/09/07 23:25:05;;;;;;;0.20;0.20;;;;;;;18.01;60.18;100384.97;5263238;27;20033;-94
2023/09/07 23:27:31;;;;;;;0.00;0.00;;;;;;;17.98;60.17;100386.88;5299345;27;20090;-93
2023/09/07 23:29:59;;;;;;;0.55;0.55;;;;;;;17.70;60.16;100380.41;5317661;27;20065;-93
2023/09/07 23:32:25;;;;;;;0.13;0.13;;;;;;;17.57;60.15;100384.59;5299181;27;20034;-93
2023/09/07 23:34:50;;;;;;;0.32;0.32;;;;;;;17.53;60.15;100390.09;5299571;27;20087;-94
2023/09/07 23:37:16;;;;;;;0.03;0.03;;;;;;;17.90;60.16;100381.16;5299537;27;20057;-93
2023/09/07 23:39:42;;;;;;;0.37;0.37;;;;;;;17.68;60.16;100381.41;5299577;27;20422;-93
2023/09/07 23:42:08;;;;;;;0.55;0.55;;;;;;;17.48;60.15;100379.75;5299544;27;20073;-94